Weather observations for the past three days for
Ephrata, Ephrata Municipal Airport
Metric (Imperial)
Date Time (pdt) Wind (kph) Vis. (km) Weather Sky Cond. Temperature (ºC) Relative Humidity Wind Chill (°C) Heat Index (°C) Pressure Precipitation (cm)
Air Dwpt 6 hour altimeter (cm) sea level (mb) 1 hr 3 hr 6 hr
Max. Min.
02 10:53 NE 11 16.09 Fair CLR 22.8 3.3 23.9 15 28% 76.17 1015.0
02 09:53 N 20 16.09 Fair CLR 23.3 3.3 27% 76.15 1014.6
02 08:53 NE 19 16.09 Fair CLR 20 5 38% 76.17 1014.9
02 07:53 NE 15 16.09 Fair CLR 17.2 5.6 47% 76.15 1014.7
02 06:53 E 13 16.09 Fair CLR 15 5.6 54% 76.12 1014.5
02 05:53 NW 15 16.09 Fair CLR 16.1 3.3 43% 76.12 1014.4
02 04:53 NW 17 16.09 A Few Clouds FEW120 16.1 3.9 16.7 12.2 44% 76.12 1014.2
02 03:53 N 9 16.09 Fair CLR 15 4.4 49% 76.12 1014.2
02 02:53 N 11 16.09 Fair CLR 13.3 5 57% 76.12 1014.3
02 01:53 NW 9 16.09 Fair CLR 14.4 4.4 51% 76.1 1014.2
02 00:53 N 13 16.09 Fair CLR 14.4 3.3 48% 76.1 1014.1
01 23:53 N 9 16.09 Fair CLR 16.7 2.2 38% 76.1 1013.9
01 22:53 NW 9 16.09 Fair CLR 16.7 2.8 24.4 16.7 40% 76.07 1013.7
01 21:53 NW 7 16.09 Fair CLR 17.2 3.9 41% 76.07 1013.9
01 20:53 Calm 16.09 Fair CLR 17.8 3.9 40% 76.05 1013.6
01 19:53 NE 9 16.09 Fair CLR 20.6 3.3 32% 76.02 1013.2
01 18:53 SE 6 16.09 Fair CLR 23.3 2.2 25% 76.02 1013.3
01 17:53 S 13 16.09 Fair CLR 23.9 2.2 24% 25 76.05 1013.8
01 16:53 S 9 16.09 Fair CLR 24.4 1.1 25.6 20.6 22% 25 76.07 1014.0
01 15:53 SW 11 16.09 Fair CLR 24.4 1.1 22% 25 76.12 1014.7
01 14:53 Vrbl 9 16.09 Fair CLR 24.4 0.6 21% 25 76.17 1015.3
01 13:53 S 9 16.09 Fair CLR 23.9 1.1 22% 25 76.23 1015.7
01 12:53 Vrbl 11 16.09 Fair CLR 23.9 0.6 22% 25 76.25 1016.1
01 11:53 E 7 16.09 Fair CLR 22.8 0.6 23% 76.28 1016.5
01 10:53 NE 7 16.09 Fair CLR 20.6 1.7 20.6 4.4 29% 76.3 1017.2
01 09:53 Vrbl 7 16.09 Fair CLR 18.9 3.3 36% 76.33 1017.2
01 08:53 NE 13 16.09 Fair CLR 16.1 2.8 41% 76.35 1017.5
01 07:53 N 9 16.09 Fair CLR 13.3 4.4 55% 76.33 1017.5
01 06:53 N 9 16.09 Fair CLR 8.3 2.8 69% 7 76.3 1017.3
01 05:53 NE 13 16.09 Fair CLR 5 1.1 76% 2 76.28 1016.9
01 04:53 NW 6 16.09 Fair CLR 7.2 1.1 14.4 6.7 66% 76.28 1016.7
01 03:53 N 9 16.09 Fair CLR 7.8 2.2 68% 6 76.28 1016.8
01 02:53 N 11 16.09 Fair CLR 8.3 2.8 69% 7 76.28 1016.7
01 01:53 N 11 16.09 Fair CLR 11.1 0.6 49% 76.28 1016.6
01 00:53 NW 11 16.09 Fair CLR 13.3 0 40% 76.28 1016.7
30 23:53 NW 11 16.09 Fair CLR 14.4 0 38% 76.3 1016.7
30 22:53 N 6 16.09 Fair CLR 11.7 2.2 24.4 11.7 52% 76.3 1017.1
30 21:53 NW 7 16.09 Fair CLR 16.7 0 32% 76.28 1016.7
30 20:53 NW 15 16.09 Fair CLR 17.2 0.6 33% 76.28 1016.6
30 19:53 NW 11 16.09 Fair CLR 20 1.1 28% 76.25 1016.4
30 18:53 SW 15 16.09 Fair CLR 21.7 0 24% 76.28 1016.7
30 17:53 Vrbl 6 16.09 Fair CLR 23.3 -0.6 20% 76.28 1016.9
30 16:53 NE 17 16.09 Fair CLR 24.4 0.6 24.4 18.9 21% 25 76.3 1017.2
30 15:53 Vrbl 7 16.09 Fair CLR 24.4 -0.6 19% 25 76.38 1017.9
30 14:53 Calm 16.09 Fair CLR 23.3 0 21% 76.43 1018.8
30 13:53 Vrbl 7 16.09 A Few Clouds FEW085 23.3 1.1 23% 76.48 1019.3
30 12:53 W 7 16.09 Fair CLR 21.7 1.7 27% 76.53 1020.1
30 11:53 E 9 16.09 Fair CLR 20.6 3.3 32% 76.58 1020.8
30 10:53 Calm 16.09 Fair CLR 18.9 3.9 20 5 37% 76.63 1021.6
30 09:53 Vrbl 6 16.09 Fair CLR 17.8 4.4 41% 76.66 1022.0
30 08:53 NE 11 16.09 Fair CLR 15 4.4 49% 76.68 1022.3
30 07:53 N 11 16.09 Fair CLR 11.1 5.6 69% 76.68 1022.5
30 06:53 Calm 16.09 Fair CLR 7.8 4.4 79% 76.68 1022.4
30 05:53 Calm 16.09 Fair CLR 5.6 3.9 89% 76.63 1021.7
30 04:53 N 11 16.09 Fair CLR 7.2 3.3 12.8 6.7 77% 5 76.63 1021.5
30 03:53 N 11 16.09 Fair CLR 8.3 3.9 74% 7 76.61 1021.4
30 02:53 N 9 16.09 Fair CLR 8.3 4.4 77% 7 76.63 1021.5
30 01:53 N 6 16.09 Fair CLR 10 3.9 66% 76.61 1021.4
30 00:53 N 9 16.09 Fair CLR 10 4.4 68% 9 76.63 1021.5
29 23:53 N 9 16.09 Fair CLR 12.8 3.9 55% 76.61 1021.2
29 22:53 W 6 16.09 Fair CLR 10.6 4.4 21.7 9.4 66% 76.58 1021.0
29 21:53 S 7 16.09 Fair CLR 10 4.4 68% 9 76.61 1021.3
29 20:53 NW 7 16.09 Fair CLR 14.4 4.4 51% 76.56 1020.8
29 19:53 SW 11 16.09 Fair CLR 16.7 5 46% 76.56 1020.6
29 18:53 SW 9 16.09 Fair CLR 20 3.3 33% 76.53 1020.5
29 17:53 S 9 16.09 Fair CLR 21.1 3.3 31% 76.56 1020.7
29 16:53 Vrbl 7 16.09 Fair CLR 21.7 2.8 22.2 16.7 29% 76.56 1020.7
29 15:53 W 9 16.09 Fair CLR 21.7 2.2 28% 76.61 1021.2
29 14:53 NE 7 16.09 Fair CLR 21.1 2.2 29% 76.63 1021.7
29 13:53 Calm 16.09 Fair CLR 19.4 3.3 35% 76.66 1022.2
29 12:53 E 9 16.09 Fair CLR 19.4 3.9 36% 76.71 1022.5
29 11:53 Calm 16.09 Fair CLR 17.8 4.4 41% 76.73 1022.9
Date Time (pdt) Wind (kph) Vis. (km) Weather Sky Cond. Air Dwpt Max. Min. Relative Humidity Wind Chill (°C) Heat Index (°C) altimeter (cm) sea level (mb) 1 hr 3 hr 6 hr
6 hour
Temperature (ºC) Pressure Precipitation (cm)